sensor_id;sensor_type;location;lat;lon;timestamp;P1;durP1;ratioP1;P2;durP2;ratioP2
3141;SDS011;1581;51.568;6.998;2023-04-01T00:02:14;5.20;;;1.00;;
3141;SDS011;1581;51.568;6.998;2023-04-01T00:04:42;4.93;;;1.33;;
3141;SDS011;1581;51.568;6.998;2023-04-01T00:07:11;7.03;;;1.40;;
3141;SDS011;1581;51.568;6.998;2023-04-01T00:09:39;4.53;;;1.43;;
3141;SDS011;1581;51.568;6.998;2023-04-01T00:12:06;3.90;;;1.20;;
3141;SDS011;1581;51.568;6.998;2023-04-01T00:14:35;3.40;;;1.93;;
3141;SDS011;1581;51.568;6.998;2023-04-01T00:17:04;4.00;;;1.37;;
3141;SDS011;1581;51.568;6.998;2023-04-01T00:19:32;2.73;;;1.30;;
3141;SDS011;1581;51.568;6.998;2023-04-01T00:22:00;6.53;;;1.60;;
3141;SDS011;1581;51.568;6.998;2023-04-01T00:24:28;4.40;;;1.50;;
3141;SDS011;1581;51.568;6.998;2023-04-01T00:27:00;4.63;;;1.60;;
3141;SDS011;1581;51.568;6.998;2023-04-01T00:29:28;14.83;;;1.93;;
3141;SDS011;1581;51.568;6.998;2023-04-01T00:31:58;1.93;;;1.20;;
3141;SDS011;1581;51.568;6.998;2023-04-01T00:34:25;4.53;;;1.43;;
3141;SDS011;1581;51.568;6.998;2023-04-01T00:36:53;6.63;;;1.17;;
3141;SDS011;1581;51.568;6.998;2023-04-01T00:39:21;2.90;;;1.40;;
3141;SDS011;1581;51.568;6.998;2023-04-01T00:41:49;3.90;;;1.40;;
3141;SDS011;1581;51.568;6.998;2023-04-01T00:44:17;11.93;;;1.53;;
3141;SDS011;1581;51.568;6.998;2023-04-01T00:46:47;4.13;;;1.87;;
3141;SDS011;1581;51.568;6.998;2023-04-01T00:49:17;2.93;;;1.20;;
3141;SDS011;1581;51.568;6.998;2023-04-01T00:51:48;3.40;;;1.37;;
3141;SDS011;1581;51.568;6.998;2023-04-01T00:54:19;3.53;;;1.10;;
3141;SDS011;1581;51.568;6.998;2023-04-01T00:56:49;6.90;;;1.60;;
3141;SDS011;1581;51.568;6.998;2023-04-01T00:59:23;3.53;;;1.20;;
3141;SDS011;1581;51.568;6.998;2023-04-01T01:01:53;1.27;;;0.80;;
3141;SDS011;1581;51.568;6.998;2023-04-01T01:04:23;3.00;;;1.00;;
3141;SDS011;1581;51.568;6.998;2023-04-01T01:06:56;3.50;;;1.40;;
3141;SDS011;1581;51.568;6.998;2023-04-01T01:09:35;1.37;;;0.90;;
3141;SDS011;1581;51.568;6.998;2023-04-01T01:12:13;2.60;;;0.93;;
3141;SDS011;1581;51.568;6.998;2023-04-01T01:14:48;4.30;;;0.90;;
3141;SDS011;1581;51.568;6.998;2023-04-01T01:17:26;2.00;;;0.90;;
3141;SDS011;1581;51.568;6.998;2023-04-01T01:20:18;4.57;;;1.37;;
3141;SDS011;1581;51.568;6.998;2023-04-01T01:23:38;2.93;;;1.63;;
3141;SDS011;1581;51.568;6.998;2023-04-01T01:26:42;1.90;;;1.20;;
3141;SDS011;1581;51.568;6.998;2023-04-01T01:29:29;1.80;;;1.07;;
3141;SDS011;1581;51.568;6.998;2023-04-01T01:33:12;3.50;;;1.47;;
3141;SDS011;1581;51.568;6.998;2023-04-01T01:36:10;3.53;;;1.30;;
3141;SDS011;1581;51.568;6.998;2023-04-01T01:38:42;5.23;;;1.67;;
3141;SDS011;1581;51.568;6.998;2023-04-01T01:41:12;1.90;;;1.10;;
3141;SDS011;1581;51.568;6.998;2023-04-01T01:43:45;4.40;;;1.20;;
3141;SDS011;1581;51.568;6.998;2023-04-01T01:46:17;1.90;;;1.17;;
3141;SDS011;1581;51.568;6.998;2023-04-01T01:48:49;6.70;;;1.03;;
3141;SDS011;1581;51.568;6.998;2023-04-01T01:51:19;1.10;;;0.77;;
3141;SDS011;1581;51.568;6.998;2023-04-01T01:53:49;1.30;;;0.73;;
3141;SDS011;1581;51.568;6.998;2023-04-01T01:56:17;2.87;;;1.23;;
3141;SDS011;1581;51.568;6.998;2023-04-01T01:58:49;4.13;;;1.07;;
3141;SDS011;1581;51.568;6.998;2023-04-01T02:01:20;2.03;;;0.90;;
3141;SDS011;1581;51.568;6.998;2023-04-01T02:03:51;2.83;;;1.27;;
3141;SDS011;1581;51.568;6.998;2023-04-01T02:06:22;1.80;;;0.90;;
3141;SDS011;1581;51.568;6.998;2023-04-01T02:08:55;1.43;;;0.80;;
3141;SDS011;1581;51.568;6.998;2023-04-01T02:11:29;2.63;;;0.90;;
3141;SDS011;1581;51.568;6.998;2023-04-01T02:14:03;7.20;;;0.90;;
3141;SDS011;1581;51.568;6.998;2023-04-01T02:16:34;4.10;;;1.20;;
3141;SDS011;1581;51.568;6.998;2023-04-01T02:19:09;0.90;;;0.67;;
3141;SDS011;1581;51.568;6.998;2023-04-01T02:21:40;2.00;;;1.33;;
3141;SDS011;1581;51.568;6.998;2023-04-01T02:24:10;4.47;;;1.00;;
3141;SDS011;1581;51.568;6.998;2023-04-01T02:26:41;3.90;;;1.00;;
3141;SDS011;1581;51.568;6.998;2023-04-01T02:29:11;3.20;;;1.17;;
3141;SDS011;1581;51.568;6.998;2023-04-01T02:31:39;1.53;;;1.27;;
3141;SDS011;1581;51.568;6.998;2023-04-01T02:34:08;1.97;;;1.23;;
3141;SDS011;1581;51.568;6.998;2023-04-01T02:36:36;4.93;;;1.10;;
3141;SDS011;1581;51.568;6.998;2023-04-01T02:39:06;1.30;;;1.20;;
3141;SDS011;1581;51.568;6.998;2023-04-01T02:41:38;1.60;;;1.50;;
3141;SDS011;1581;51.568;6.998;2023-04-01T02:44:07;1.10;;;1.00;;
3141;SDS011;1581;51.568;6.998;2023-04-01T02:46:34;2.10;;;1.13;;
3141;SDS011;1581;51.568;6.998;2023-04-01T02:49:03;4.73;;;1.73;;
3141;SDS011;1581;51.568;6.998;2023-04-01T02:51:31;2.53;;;1.60;;
3141;SDS011;1581;51.568;6.998;2023-04-01T02:53:59;3.50;;;1.60;;
3141;SDS011;1581;51.568;6.998;2023-04-01T02:56:29;11.97;;;1.93;;
3141;SDS011;1581;51.568;6.998;2023-04-01T02:58:56;4.40;;;2.40;;
3141;SDS011;1581;51.568;6.998;2023-04-01T03:01:24;5.60;;;1.60;;
3141;SDS011;1581;51.568;6.998;2023-04-01T03:03:52;9.43;;;2.17;;
3141;SDS011;1581;51.568;6.998;2023-04-01T03:06:20;3.07;;;2.20;;
3141;SDS011;1581;51.568;6.998;2023-04-01T03:08:48;2.50;;;1.93;;
3141;SDS011;1581;51.568;6.998;2023-04-01T03:11:15;4.90;;;2.03;;
3141;SDS011;1581;51.568;6.998;2023-04-01T03:13:44;3.97;;;1.57;;
3141;SDS011;1581;51.568;6.998;2023-04-01T03:16:12;4.90;;;2.37;;
3141;SDS011;1581;51.568;6.998;2023-04-01T03:18:40;3.73;;;2.00;;
3141;SDS011;1581;51.568;6.998;2023-04-01T03:21:14;2.63;;;1.83;;
3141;SDS011;1581;51.568;6.998;2023-04-01T03:23:43;1.70;;;1.60;;
3141;SDS011;1581;51.568;6.998;2023-04-01T03:26:10;3.33;;;1.67;;
3141;SDS011;1581;51.568;6.998;2023-04-01T03:28:38;3.27;;;1.73;;
3141;SDS011;1581;51.568;6.998;2023-04-01T03:31:08;2.67;;;1.97;;
3141;SDS011;1581;51.568;6.998;2023-04-01T03:33:36;1.77;;;1.67;;
3141;SDS011;1581;51.568;6.998;2023-04-01T03:36:04;8.70;;;2.10;;
3141;SDS011;1581;51.568;6.998;2023-04-01T03:38:32;2.13;;;2.03;;
3141;SDS011;1581;51.568;6.998;2023-04-01T03:41:00;1.90;;;1.70;;
3141;SDS011;1581;51.568;6.998;2023-04-01T03:43:28;10.53;;;2.13;;
3141;SDS011;1581;51.568;6.998;2023-04-01T03:45:56;5.10;;;2.43;;
3141;SDS011;1581;51.568;6.998;2023-04-01T03:48:25;10.27;;;2.60;;
3141;SDS011;1581;51.568;6.998;2023-04-01T03:50:53;2.57;;;2.20;;
3141;SDS011;1581;51.568;6.998;2023-04-01T03:53:20;7.23;;;2.70;;
3141;SDS011;1581;51.568;6.998;2023-04-01T03:55:48;5.23;;;3.43;;
3141;SDS011;1581;51.568;6.998;2023-04-01T03:58:16;7.73;;;3.20;;
3141;SDS011;1581;51.568;6.998;2023-04-01T04:00:44;3.87;;;3.33;;
3141;SDS011;1581;51.568;6.998;2023-04-01T04:03:12;4.63;;;3.40;;
3141;SDS011;1581;51.568;6.998;2023-04-01T04:05:47;4.60;;;3.37;;
3141;SDS011;1581;51.568;6.998;2023-04-01T04:08:15;5.20;;;3.13;;
3141;SDS011;1581;51.568;6.998;2023-04-01T04:10:43;6.07;;;3.47;;
3141;SDS011;1581;51.568;6.998;2023-04-01T04:13:11;6.43;;;3.57;;
3141;SDS011;1581;51.568;6.998;2023-04-01T04:15:39;9.43;;;3.33;;
3141;SDS011;1581;51.568;6.998;2023-04-01T04:18:06;4.17;;;3.13;;
3141;SDS011;1581;51.568;6.998;2023-04-01T04:20:34;6.00;;;3.67;;
3141;SDS011;1581;51.568;6.998;2023-04-01T04:23:03;4.50;;;3.50;;
3141;SDS011;1581;51.568;6.998;2023-04-01T04:25:31;7.57;;;4.57;;
3141;SDS011;1581;51.568;6.998;2023-04-01T04:27:58;5.23;;;3.97;;
3141;SDS011;1581;51.568;6.998;2023-04-01T04:30:26;6.13;;;4.23;;
3141;SDS011;1581;51.568;6.998;2023-04-01T04:32:54;4.53;;;3.43;;
3141;SDS011;1581;51.568;6.998;2023-04-01T04:35:21;5.40;;;4.17;;
3141;SDS011;1581;51.568;6.998;2023-04-01T04:37:49;5.03;;;4.47;;
3141;SDS011;1581;51.568;6.998;2023-04-01T04:40:18;7.70;;;3.90;;
3141;SDS011;1581;51.568;6.998;2023-04-01T04:42:46;4.37;;;3.77;;
3141;SDS011;1581;51.568;6.998;2023-04-01T04:45:13;7.67;;;4.30;;
3141;SDS011;1581;51.568;6.998;2023-04-01T04:47:41;9.97;;;4.37;;
3141;SDS011;1581;51.568;6.998;2023-04-01T04:50:09;6.90;;;4.40;;
3141;SDS011;1581;51.568;6.998;2023-04-01T04:52:38;8.33;;;4.33;;
3141;SDS011;1581;51.568;6.998;2023-04-01T04:55:05;7.10;;;4.63;;
3141;SDS011;1581;51.568;6.998;2023-04-01T04:57:35;6.67;;;4.40;;
3141;SDS011;1581;51.568;6.998;2023-04-01T05:00:03;10.70;;;4.60;;
3141;SDS011;1581;51.568;6.998;2023-04-01T05:02:33;18.23;;;4.73;;
3141;SDS011;1581;51.568;6.998;2023-04-01T05:05:00;8.20;;;4.20;;
3141;SDS011;1581;51.568;6.998;2023-04-01T05:07:29;8.63;;;4.63;;
3141;SDS011;1581;51.568;6.998;2023-04-01T05:09:56;5.87;;;3.00;;
3141;SDS011;1581;51.568;6.998;2023-04-01T05:12:24;6.43;;;3.57;;
3141;SDS011;1581;51.568;6.998;2023-04-01T05:14:53;7.03;;;3.37;;
3141;SDS011;1581;51.568;6.998;2023-04-01T05:17:21;6.03;;;3.37;;
3141;SDS011;1581;51.568;6.998;2023-04-01T05:19:48;5.43;;;3.00;;
3141;SDS011;1581;51.568;6.998;2023-04-01T05:22:16;3.77;;;2.90;;
3141;SDS011;1581;51.568;6.998;2023-04-01T05:24:44;4.50;;;3.20;;
3141;SDS011;1581;51.568;6.998;2023-04-01T05:27:11;3.13;;;2.50;;
3141;SDS011;1581;51.568;6.998;2023-04-01T05:29:39;9.13;;;2.70;;
3141;SDS011;1581;51.568;6.998;2023-04-01T05:32:08;6.43;;;3.03;;
3141;SDS011;1581;51.568;6.998;2023-04-01T05:34:36;11.87;;;3.33;;
3141;SDS011;1581;51.568;6.998;2023-04-01T05:37:03;6.47;;;3.10;;
3141;SDS011;1581;51.568;6.998;2023-04-01T05:39:35;5.90;;;3.53;;
3141;SDS011;1581;51.568;6.998;2023-04-01T05:42:04;4.10;;;3.70;;
3141;SDS011;1581;51.568;6.998;2023-04-01T05:44:33;4.43;;;3.57;;
3141;SDS011;1581;51.568;6.998;2023-04-01T05:47:01;9.20;;;3.87;;
3141;SDS011;1581;51.568;6.998;2023-04-01T05:49:32;6.40;;;4.97;;
3141;SDS011;1581;51.568;6.998;2023-04-01T05:52:01;5.23;;;3.90;;
3141;SDS011;1581;51.568;6.998;2023-04-01T05:54:29;5.30;;;4.03;;
3141;SDS011;1581;51.568;6.998;2023-04-01T05:56:56;6.80;;;4.50;;
3141;SDS011;1581;51.568;6.998;2023-04-01T05:59:24;9.37;;;4.70;;
3141;SDS011;1581;51.568;6.998;2023-04-01T06:01:51;5.40;;;4.60;;
3141;SDS011;1581;51.568;6.998;2023-04-01T06:04:20;4.50;;;4.10;;
3141;SDS011;1581;51.568;6.998;2023-04-01T06:06:49;6.13;;;5.10;;
3141;SDS011;1581;51.568;6.998;2023-04-01T06:09:18;5.93;;;4.57;;
3141;SDS011;1581;51.568;6.998;2023-04-01T06:12:07;5.90;;;4.73;;
3141;SDS011;1581;51.568;6.998;2023-04-01T06:14:55;4.37;;;3.93;;
3141;SDS011;1581;51.568;6.998;2023-04-01T06:17:41;4.23;;;3.40;;
3141;SDS011;1581;51.568;6.998;2023-04-01T06:20:29;6.43;;;3.90;;
3141;SDS011;1581;51.568;6.998;2023-04-01T06:23:12;5.53;;;3.37;;
3141;SDS011;1581;51.568;6.998;2023-04-01T06:26:14;5.73;;;3.93;;
3141;SDS011;1581;51.568;6.998;2023-04-01T06:29:09;4.47;;;3.90;;
3141;SDS011;1581;51.568;6.998;2023-04-01T06:32:22;5.30;;;4.30;;
3141;SDS011;1581;51.568;6.998;2023-04-01T06:35:31;7.20;;;3.90;;
3141;SDS011;1581;51.568;6.998;2023-04-01T06:38:35;4.87;;;3.87;;
3141;SDS011;1581;51.568;6.998;2023-04-01T06:41:24;6.13;;;4.20;;
3141;SDS011;1581;51.568;6.998;2023-04-01T06:44:31;7.63;;;3.70;;
3141;SDS011;1581;51.568;6.998;2023-04-01T06:47:14;5.97;;;3.53;;
3141;SDS011;1581;51.568;6.998;2023-04-01T06:50:07;6.13;;;3.60;;
3141;SDS011;1581;51.568;6.998;2023-04-01T06:52:47;5.93;;;3.50;;
3141;SDS011;1581;51.568;6.998;2023-04-01T06:55:27;4.03;;;3.27;;
3141;SDS011;1581;51.568;6.998;2023-04-01T06:58:03;4.17;;;3.57;;
3141;SDS011;1581;51.568;6.998;2023-04-01T07:00:43;4.50;;;3.60;;
3141;SDS011;1581;51.568;6.998;2023-04-01T07:03:16;6.30;;;3.50;;
3141;SDS011;1581;51.568;6.998;2023-04-01T07:05:49;6.00;;;3.57;;
3141;SDS011;1581;51.568;6.998;2023-04-01T07:08:18;4.00;;;3.57;;
3141;SDS011;1581;51.568;6.998;2023-04-01T07:10:54;3.77;;;2.97;;
3141;SDS011;1581;51.568;6.998;2023-04-01T07:13:31;4.87;;;3.50;;
3141;SDS011;1581;51.568;6.998;2023-04-01T07:16:11;3.17;;;2.77;;
3141;SDS011;1581;51.568;6.998;2023-04-01T07:18:44;3.80;;;3.20;;
3141;SDS011;1581;51.568;6.998;2023-04-01T07:21:22;3.33;;;3.03;;
3141;SDS011;1581;51.568;6.998;2023-04-01T07:23:56;4.57;;;3.03;;
3141;SDS011;1581;51.568;6.998;2023-04-01T07:26:31;4.77;;;2.90;;
3141;SDS011;1581;51.568;6.998;2023-04-01T07:28:58;4.57;;;2.97;;
3141;SDS011;1581;51.568;6.998;2023-04-01T07:31:30;6.00;;;3.90;;
3141;SDS011;1581;51.568;6.998;2023-04-01T07:34:15;4.33;;;3.90;;
3141;SDS011;1581;51.568;6.998;2023-04-01T07:36:52;4.20;;;3.20;;
3141;SDS011;1581;51.568;6.998;2023-04-01T07:39:31;3.37;;;3.07;;
3141;SDS011;1581;51.568;6.998;2023-04-01T07:42:11;6.43;;;3.10;;
3141;SDS011;1581;51.568;6.998;2023-04-01T07:44:50;3.33;;;3.03;;
3141;SDS011;1581;51.568;6.998;2023-04-01T07:47:34;5.03;;;3.67;;
3141;SDS011;1581;51.568;6.998;2023-04-01T07:50:25;5.10;;;3.60;;
3141;SDS011;1581;51.568;6.998;2023-04-01T07:52:59;4.93;;;4.43;;
3141;SDS011;1581;51.568;6.998;2023-04-01T07:55:40;4.13;;;3.70;;
3141;SDS011;1581;51.568;6.998;2023-04-01T07:58:17;5.73;;;4.30;;
3141;SDS011;1581;51.568;6.998;2023-04-01T08:00:52;6.63;;;5.00;;
3141;SDS011;1581;51.568;6.998;2023-04-01T08:03:34;4.47;;;4.00;;
3141;SDS011;1581;51.568;6.998;2023-04-01T08:06:20;6.63;;;4.37;;
3141;SDS011;1581;51.568;6.998;2023-04-01T08:08:58;8.67;;;4.57;;
3141;SDS011;1581;51.568;6.998;2023-04-01T08:11:36;10.60;;;4.77;;
3141;SDS011;1581;51.568;6.998;2023-04-01T08:14:21;9.80;;;4.60;;
3141;SDS011;1581;51.568;6.998;2023-04-01T08:17:04;5.77;;;4.57;;
3141;SDS011;1581;51.568;6.998;2023-04-01T08:19:46;6.77;;;5.33;;
3141;SDS011;1581;51.568;6.998;2023-04-01T08:22:30;9.10;;;6.47;;
3141;SDS011;1581;51.568;6.998;2023-04-01T08:25:05;8.00;;;6.37;;
3141;SDS011;1581;51.568;6.998;2023-04-01T08:27:41;8.30;;;6.97;;
3141;SDS011;1581;51.568;6.998;2023-04-01T08:30:18;8.37;;;7.17;;
3141;SDS011;1581;51.568;6.998;2023-04-01T08:32:50;11.37;;;7.30;;
3141;SDS011;1581;51.568;6.998;2023-04-01T08:35:26;9.47;;;6.70;;
3141;SDS011;1581;51.568;6.998;2023-04-01T08:37:59;11.10;;;7.07;;
3141;SDS011;1581;51.568;6.998;2023-04-01T08:40:48;10.63;;;6.60;;
3141;SDS011;1581;51.568;6.998;2023-04-01T08:43:29;8.37;;;7.20;;
3141;SDS011;1581;51.568;6.998;2023-04-01T08:50:19;9.60;;;7.70;;
3141;SDS011;1581;51.568;6.998;2023-04-01T08:53:03;11.50;;;7.80;;
3141;SDS011;1581;51.568;6.998;2023-04-01T08:55:44;13.73;;;8.47;;
3141;SDS011;1581;51.568;6.998;2023-04-01T08:58:32;14.47;;;10.40;;
3141;SDS011;1581;51.568;6.998;2023-04-01T09:01:25;17.47;;;11.20;;
3141;SDS011;1581;51.568;6.998;2023-04-01T09:04:21;18.63;;;11.57;;
3141;SDS011;1581;51.568;6.998;2023-04-01T09:07:08;13.37;;;9.47;;
3141;SDS011;1581;51.568;6.998;2023-04-01T09:16:34;16.80;;;10.67;;
3141;SDS011;1581;51.568;6.998;2023-04-01T09:19:30;12.80;;;9.50;;
3141;SDS011;1581;51.568;6.998;2023-04-01T09:22:15;10.33;;;8.07;;
3141;SDS011;1581;51.568;6.998;2023-04-01T09:25:06;10.63;;;8.50;;
3141;SDS011;1581;51.568;6.998;2023-04-01T09:27:57;12.57;;;8.43;;
3141;SDS011;1581;51.568;6.998;2023-04-01T09:30:43;11.47;;;8.00;;
3141;SDS011;1581;51.568;6.998;2023-04-01T09:36:55;9.30;;;6.50;;
3141;SDS011;1581;51.568;6.998;2023-04-01T09:39:46;7.43;;;6.00;;
3141;SDS011;1581;51.568;6.998;2023-04-01T09:42:45;9.13;;;6.37;;
3141;SDS011;1581;51.568;6.998;2023-04-01T09:45:35;10.37;;;7.30;;
3141;SDS011;1581;51.568;6.998;2023-04-01T09:48:18;9.47;;;8.30;;
3141;SDS011;1581;51.568;6.998;2023-04-01T09:51:01;9.90;;;6.60;;
3141;SDS011;1581;51.568;6.998;2023-04-01T09:53:52;9.57;;;7.10;;
3141;SDS011;1581;51.568;6.998;2023-04-01T09:59:52;8.47;;;6.63;;
3141;SDS011;1581;51.568;6.998;2023-04-01T10:09:33;9.60;;;7.67;;
3141;SDS011;1581;51.568;6.998;2023-04-01T10:19:49;6.30;;;5.03;;
3141;SDS011;1581;51.568;6.998;2023-04-01T10:22:50;5.70;;;4.60;;
3141;SDS011;1581;51.568;6.998;2023-04-01T10:29:00;4.57;;;3.13;;
3141;SDS011;1581;51.568;6.998;2023-04-01T10:32:05;3.50;;;3.13;;
3141;SDS011;1581;51.568;6.998;2023-04-01T10:35:29;3.93;;;3.60;;
3141;SDS011;1581;51.568;6.998;2023-04-01T10:41:54;3.87;;;3.47;;
3141;SDS011;1581;51.568;6.998;2023-04-01T10:45:09;4.30;;;3.90;;
3141;SDS011;1581;51.568;6.998;2023-04-01T10:52:01;3.77;;;3.47;;
3141;SDS011;1581;51.568;6.998;2023-04-01T10:55:33;3.63;;;3.33;;
3141;SDS011;1581;51.568;6.998;2023-04-01T11:02:01;4.07;;;3.10;;
3141;SDS011;1581;51.568;6.998;2023-04-01T11:22:24;4.50;;;3.10;;
3141;SDS011;1581;51.568;6.998;2023-04-01T11:25:50;3.67;;;3.37;;
3141;SDS011;1581;51.568;6.998;2023-04-01T11:28:57;3.90;;;3.50;;
3141;SDS011;1581;51.568;6.998;2023-04-01T11:31:58;3.60;;;3.30;;
3141;SDS011;1581;51.568;6.998;2023-04-01T11:34:48;3.73;;;2.63;;
3141;SDS011;1581;51.568;6.998;2023-04-01T11:37:30;3.40;;;3.10;;
3141;SDS011;1581;51.568;6.998;2023-04-01T11:40:14;4.20;;;3.80;;
3141;SDS011;1581;51.568;6.998;2023-04-01T11:42:55;3.67;;;3.47;;
3141;SDS011;1581;51.568;6.998;2023-04-01T11:45:34;4.00;;;3.67;;
3141;SDS011;1581;51.568;6.998;2023-04-01T11:48:26;4.13;;;3.37;;
3141;SDS011;1581;51.568;6.998;2023-04-01T11:51:15;4.60;;;3.77;;
3141;SDS011;1581;51.568;6.998;2023-04-01T11:54:20;3.67;;;3.37;;
3141;SDS011;1581;51.568;6.998;2023-04-01T11:57:07;8.27;;;3.47;;
3141;SDS011;1581;51.568;6.998;2023-04-01T11:59:58;5.03;;;3.60;;
3141;SDS011;1581;51.568;6.998;2023-04-01T12:03:00;8.27;;;4.03;;
3141;SDS011;1581;51.568;6.998;2023-04-01T12:06:02;4.07;;;3.77;;
3141;SDS011;1581;51.568;6.998;2023-04-01T12:08:41;4.00;;;3.60;;
3141;SDS011;1581;51.568;6.998;2023-04-01T12:11:21;5.50;;;4.00;;
3141;SDS011;1581;51.568;6.998;2023-04-01T12:13:59;7.80;;;5.17;;
3141;SDS011;1581;51.568;6.998;2023-04-01T12:16:41;5.57;;;4.40;;
3141;SDS011;1581;51.568;6.998;2023-04-01T12:19:32;5.63;;;3.63;;
3141;SDS011;1581;51.568;6.998;2023-04-01T12:22:17;10.67;;;4.90;;
3141;SDS011;1581;51.568;6.998;2023-04-01T12:28:36;6.17;;;4.50;;
3141;SDS011;1581;51.568;6.998;2023-04-01T12:31:26;4.57;;;4.17;;
3141;SDS011;1581;51.568;6.998;2023-04-01T12:34:29;6.90;;;4.57;;
3141;SDS011;1581;51.568;6.998;2023-04-01T12:37:35;7.50;;;4.37;;
3141;SDS011;1581;51.568;6.998;2023-04-01T12:46:32;5.57;;;5.07;;
3141;SDS011;1581;51.568;6.998;2023-04-01T12:52:55;5.20;;;4.70;;
3141;SDS011;1581;51.568;6.998;2023-04-01T12:55:40;6.83;;;5.70;;
3141;SDS011;1581;51.568;6.998;2023-04-01T13:01:44;7.17;;;5.70;;
3141;SDS011;1581;51.568;6.998;2023-04-01T13:07:35;6.87;;;5.87;;
3141;SDS011;1581;51.568;6.998;2023-04-01T13:10:27;7.37;;;5.50;;
3141;SDS011;1581;51.568;6.998;2023-04-01T13:16:18;9.97;;;5.60;;
3141;SDS011;1581;51.568;6.998;2023-04-01T13:18:57;8.20;;;5.33;;
3141;SDS011;1581;51.568;6.998;2023-04-01T13:21:34;6.33;;;5.67;;
3141;SDS011;1581;51.568;6.998;2023-04-01T13:24:43;6.80;;;5.03;;
3141;SDS011;1581;51.568;6.998;2023-04-01T13:27:23;5.77;;;4.93;;
3141;SDS011;1581;51.568;6.998;2023-04-01T13:30:02;7.87;;;5.93;;
3141;SDS011;1581;51.568;6.998;2023-04-01T13:32:50;7.80;;;5.23;;
3141;SDS011;1581;51.568;6.998;2023-04-01T13:35:34;7.20;;;4.93;;
3141;SDS011;1581;51.568;6.998;2023-04-01T13:38:17;5.60;;;4.60;;
3141;SDS011;1581;51.568;6.998;2023-04-01T13:41:18;6.53;;;4.80;;
3141;SDS011;1581;51.568;6.998;2023-04-01T13:44:00;6.37;;;4.53;;
3141;SDS011;1581;51.568;6.998;2023-04-01T13:46:47;9.00;;;6.33;;
3141;SDS011;1581;51.568;6.998;2023-04-01T13:50:03;10.83;;;5.50;;
3141;SDS011;1581;51.568;6.998;2023-04-01T13:56:15;4.53;;;3.90;;
3141;SDS011;1581;51.568;6.998;2023-04-01T13:59:02;5.17;;;4.20;;
3141;SDS011;1581;51.568;6.998;2023-04-01T14:02:28;6.53;;;5.30;;
3141;SDS011;1581;51.568;6.998;2023-04-01T14:05:25;9.57;;;4.33;;
3141;SDS011;1581;51.568;6.998;2023-04-01T14:08:29;5.87;;;4.67;;
3141;SDS011;1581;51.568;6.998;2023-04-01T14:11:36;7.60;;;6.00;;
3141;SDS011;1581;51.568;6.998;2023-04-01T14:14:18;10.63;;;6.50;;
3141;SDS011;1581;51.568;6.998;2023-04-01T14:17:01;7.47;;;6.17;;
3141;SDS011;1581;51.568;6.998;2023-04-01T14:20:19;9.70;;;6.70;;
3141;SDS011;1581;51.568;6.998;2023-04-01T14:23:04;8.73;;;6.43;;
3141;SDS011;1581;51.568;6.998;2023-04-01T14:26:23;6.63;;;5.00;;
3141;SDS011;1581;51.568;6.998;2023-04-01T14:29:35;7.63;;;6.10;;
3141;SDS011;1581;51.568;6.998;2023-04-01T14:32:11;6.87;;;6.17;;
3141;SDS011;1581;51.568;6.998;2023-04-01T14:34:53;10.20;;;7.50;;
3141;SDS011;1581;51.568;6.998;2023-04-01T14:37:48;11.27;;;7.40;;
3141;SDS011;1581;51.568;6.998;2023-04-01T14:40:43;10.60;;;7.03;;
3141;SDS011;1581;51.568;6.998;2023-04-01T14:43:36;7.03;;;6.23;;
3141;SDS011;1581;51.568;6.998;2023-04-01T14:46:51;8.60;;;6.40;;
3141;SDS011;1581;51.568;6.998;2023-04-01T14:49:53;6.83;;;6.03;;
3141;SDS011;1581;51.568;6.998;2023-04-01T14:52:33;8.50;;;6.80;;
3141;SDS011;1581;51.568;6.998;2023-04-01T14:55:15;6.33;;;5.70;;
3141;SDS011;1581;51.568;6.998;2023-04-01T14:58:04;10.80;;;6.03;;
3141;SDS011;1581;51.568;6.998;2023-04-01T15:00:48;7.40;;;5.70;;
3141;SDS011;1581;51.568;6.998;2023-04-01T15:03:26;6.30;;;5.20;;
3141;SDS011;1581;51.568;6.998;2023-04-01T15:06:12;10.80;;;6.40;;
3141;SDS011;1581;51.568;6.998;2023-04-01T15:09:24;7.40;;;6.70;;
3141;SDS011;1581;51.568;6.998;2023-04-01T15:12:02;5.50;;;5.03;;
3141;SDS011;1581;51.568;6.998;2023-04-01T15:17:44;6.40;;;5.87;;
3141;SDS011;1581;51.568;6.998;2023-04-01T15:23:39;7.67;;;6.87;;
3141;SDS011;1581;51.568;6.998;2023-04-01T15:29:28;6.33;;;5.73;;
3141;SDS011;1581;51.568;6.998;2023-04-01T15:32:25;6.13;;;5.63;;
3141;SDS011;1581;51.568;6.998;2023-04-01T15:35:09;6.20;;;5.60;;
3141;SDS011;1581;51.568;6.998;2023-04-01T15:37:53;9.47;;;5.40;;
3141;SDS011;1581;51.568;6.998;2023-04-01T15:40:27;5.37;;;4.80;;
3141;SDS011;1581;51.568;6.998;2023-04-01T15:43:05;6.17;;;5.57;;
3141;SDS011;1581;51.568;6.998;2023-04-01T15:45:49;5.27;;;4.83;;
3141;SDS011;1581;51.568;6.998;2023-04-01T15:48:33;7.80;;;5.50;;
3141;SDS011;1581;51.568;6.998;2023-04-01T15:51:41;5.33;;;4.80;;
3141;SDS011;1581;51.568;6.998;2023-04-01T15:54:23;6.17;;;4.70;;
3141;SDS011;1581;51.568;6.998;2023-04-01T15:57:25;4.10;;;3.70;;
3141;SDS011;1581;51.568;6.998;2023-04-01T16:00:09;3.80;;;3.30;;
3141;SDS011;1581;51.568;6.998;2023-04-01T16:02:54;4.20;;;3.80;;
3141;SDS011;1581;51.568;6.998;2023-04-01T16:05:51;3.83;;;3.20;;
3141;SDS011;1581;51.568;6.998;2023-04-01T16:08:45;3.60;;;2.80;;
3141;SDS011;1581;51.568;6.998;2023-04-01T16:11:48;3.43;;;3.13;;
3141;SDS011;1581;51.568;6.998;2023-04-01T16:14:28;4.53;;;3.37;;
3141;SDS011;1581;51.568;6.998;2023-04-01T16:17:14;6.60;;;4.53;;
3141;SDS011;1581;51.568;6.998;2023-04-01T16:19:59;4.77;;;4.23;;
3141;SDS011;1581;51.568;6.998;2023-04-01T16:22:44;7.13;;;4.57;;
3141;SDS011;1581;51.568;6.998;2023-04-01T16:25:21;5.67;;;5.17;;
3141;SDS011;1581;51.568;6.998;2023-04-01T16:28:04;5.60;;;5.03;;
3141;SDS011;1581;51.568;6.998;2023-04-01T16:30:46;6.37;;;4.70;;
3141;SDS011;1581;51.568;6.998;2023-04-01T16:33:24;7.67;;;4.93;;
3141;SDS011;1581;51.568;6.998;2023-04-01T16:36:08;6.23;;;5.57;;
3141;SDS011;1581;51.568;6.998;2023-04-01T16:38:50;8.40;;;6.30;;
3141;SDS011;1581;51.568;6.998;2023-04-01T16:41:34;6.10;;;5.50;;
3141;SDS011;1581;51.568;6.998;2023-04-01T16:44:10;7.10;;;5.03;;
3141;SDS011;1581;51.568;6.998;2023-04-01T16:46:45;9.90;;;6.67;;
3141;SDS011;1581;51.568;6.998;2023-04-01T16:49:29;7.87;;;6.43;;
3141;SDS011;1581;51.568;6.998;2023-04-01T16:52:16;10.37;;;6.07;;
3141;SDS011;1581;51.568;6.998;2023-04-01T16:54:59;8.53;;;7.10;;
3141;SDS011;1581;51.568;6.998;2023-04-01T16:57:43;7.60;;;5.67;;
3141;SDS011;1581;51.568;6.998;2023-04-01T17:00:20;6.50;;;5.90;;
3141;SDS011;1581;51.568;6.998;2023-04-01T17:02:57;9.03;;;6.03;;
3141;SDS011;1581;51.568;6.998;2023-04-01T17:05:42;11.63;;;7.00;;
3141;SDS011;1581;51.568;6.998;2023-04-01T17:08:31;6.23;;;5.33;;
3141;SDS011;1581;51.568;6.998;2023-04-01T17:11:16;7.20;;;5.77;;
3141;SDS011;1581;51.568;6.998;2023-04-01T17:13:52;10.40;;;6.77;;
3141;SDS011;1581;51.568;6.998;2023-04-01T17:16:44;7.77;;;5.87;;
3141;SDS011;1581;51.568;6.998;2023-04-01T17:22:27;8.90;;;6.87;;
3141;SDS011;1581;51.568;6.998;2023-04-01T17:25:16;6.90;;;5.80;;
3141;SDS011;1581;51.568;6.998;2023-04-01T17:28:02;8.53;;;5.93;;
3141;SDS011;1581;51.568;6.998;2023-04-01T17:30:41;6.60;;;4.83;;
3141;SDS011;1581;51.568;6.998;2023-04-01T17:33:27;9.93;;;6.33;;
3141;SDS011;1581;51.568;6.998;2023-04-01T17:36:21;8.80;;;6.30;;
3141;SDS011;1581;51.568;6.998;2023-04-01T17:39:13;9.77;;;6.57;;
3141;SDS011;1581;51.568;6.998;2023-04-01T17:42:04;8.90;;;5.03;;
3141;SDS011;1581;51.568;6.998;2023-04-01T17:44:45;7.57;;;4.70;;
3141;SDS011;1581;51.568;6.998;2023-04-01T17:47:27;5.30;;;4.80;;
3141;SDS011;1581;51.568;6.998;2023-04-01T17:50:09;6.57;;;5.80;;
3141;SDS011;1581;51.568;6.998;2023-04-01T17:52:53;6.60;;;5.70;;
3141;SDS011;1581;51.568;6.998;2023-04-01T17:55:43;8.17;;;5.70;;
3141;SDS011;1581;51.568;6.998;2023-04-01T17:58:28;8.80;;;6.80;;
3141;SDS011;1581;51.568;6.998;2023-04-01T18:01:19;6.67;;;6.07;;
3141;SDS011;1581;51.568;6.998;2023-04-01T18:10:01;7.73;;;6.27;;
3141;SDS011;1581;51.568;6.998;2023-04-01T18:12:44;7.60;;;6.63;;
3141;SDS011;1581;51.568;6.998;2023-04-01T18:15:45;11.30;;;5.70;;
3141;SDS011;1581;51.568;6.998;2023-04-01T18:18:34;7.33;;;5.73;;
3141;SDS011;1581;51.568;6.998;2023-04-01T18:21:14;7.97;;;6.00;;
3141;SDS011;1581;51.568;6.998;2023-04-01T18:23:54;9.07;;;5.37;;
3141;SDS011;1581;51.568;6.998;2023-04-01T18:26:26;9.33;;;7.20;;
3141;SDS011;1581;51.568;6.998;2023-04-01T18:28:59;12.80;;;8.03;;